Time;durP1;ratioP1;P1;durP2;ratioP2;P2;SDS_P1;SDS_P2;PMS_P1;PMS_P2;Temp;Humidity;BMP_temperature;BMP_pressure;BME280_temperature;BME280_humidity;BME280_pressure;Samples;Min_cycle;Max_cycle;Signal;HPM_P1;HPM_P2
2022/03/19 00:02:04;;;;;;;9.52;3.10;;;;;;;10.23;38.93;103002.50;5070012;28;20063;-58
2022/03/19 00:04:51;;;;;;;8.98;2.90;;;;;;;10.07;38.74;103002.53;5070571;28;20067;-57
2022/03/19 00:07:40;;;;;;;13.13;4.22;;;;;;;10.03;38.85;103002.22;5075005;28;20063;-57
2022/03/19 00:10:27;;;;;;;7.00;2.90;;;;;;;10.15;38.59;102996.63;5067466;28;20064;-59
2022/03/19 00:13:13;;;;;;;7.20;3.05;;;;;;;10.14;38.37;102995.81;5073192;28;20067;-58
2022/03/19 00:15:59;;;;;;;8.68;2.70;;;;;;;10.24;38.22;102995.09;5072789;28;20537;-57
2022/03/19 00:18:46;;;;;;;10.25;3.10;;;;;;;10.08;38.06;102991.31;5067516;28;20056;-57
2022/03/19 00:21:32;;;;;;;8.35;2.60;;;;;;;10.10;38.07;102999.31;5073960;28;20070;-58
2022/03/19 00:24:18;;;;;;;6.68;2.50;;;;;;;10.06;38.12;102998.09;5061194;28;20055;-58
2022/03/19 00:27:03;;;;;;;6.55;2.85;;;;;;;10.18;38.10;102994.19;5072077;28;20059;-57
2022/03/19 00:29:49;;;;;;;6.05;2.58;;;;;;;10.25;37.83;102995.94;5092871;28;20514;-57
2022/03/19 00:32:35;;;;;;;7.32;3.15;;;;;;;10.15;37.99;102999.38;5062735;28;20613;-56
2022/03/19 00:35:21;;;;;;;6.88;2.55;;;;;;;10.12;38.23;103002.66;5077418;28;20055;-56
2022/03/19 00:38:07;;;;;;;6.07;2.60;;;;;;;10.19;37.98;102993.13;5067497;28;20056;-58
2022/03/19 00:40:53;;;;;;;8.45;2.63;;;;;;;10.03;38.11;102993.97;5075551;28;20055;-58
2022/03/19 00:43:39;;;;;;;6.75;2.92;;;;;;;9.94;38.30;102995.47;5070216;28;20108;-56
2022/03/19 00:46:26;;;;;;;9.43;3.00;;;;;;;9.93;38.38;102996.59;5074877;28;20514;-57
2022/03/19 00:49:11;;;;;;;6.93;2.40;;;;;;;9.87;38.30;102996.72;5074798;28;20047;-59
2022/03/19 00:51:58;;;;;;;8.88;2.60;;;;;;;9.89;38.42;102987.16;5073548;28;20059;-55
2022/03/19 00:54:43;;;;;;;7.00;2.50;;;;;;;9.97;38.39;102983.13;5067758;28;20064;-59
2022/03/19 00:57:44;;;;;;;8.93;2.78;;;;;;;9.81;38.63;102984.84;5062750;28;20127;-56
2022/03/19 01:00:30;;;;;;;9.10;2.75;;;;;;;9.81;38.91;102981.25;5072773;28;20427;-58
2022/03/19 01:03:16;;;;;;;8.13;2.97;;;;;;;9.98;38.63;102980.13;5073849;28;20083;-58
2022/03/19 01:06:01;;;;;;;9.27;2.83;;;;;;;10.07;38.45;102975.00;5066588;28;20055;-59
2022/03/19 01:08:47;;;;;;;7.55;2.53;;;;;;;9.93;38.86;102963.53;5062182;28;20064;-58
2022/03/19 01:11:33;;;;;;;6.55;2.85;;;;;;;9.84;38.97;102966.97;5075177;28;20079;-56
2022/03/19 01:14:19;;;;;;;6.25;2.78;;;;;;;9.66;39.40;102968.09;5057690;28;20067;-56
2022/03/19 01:17:06;;;;;;;5.70;2.65;;;;;;;9.84;39.26;102966.97;5068218;28;20056;-55
2022/03/19 01:19:54;;;;;;;8.35;2.90;;;;;;;9.73;39.28;102968.75;5088391;28;20064;-56
2022/03/19 01:22:42;;;;;;;6.30;2.60;;;;;;;9.44;39.44;102969.13;5078234;28;20399;-58
2022/03/19 01:25:28;;;;;;;5.70;2.08;;;;;;;9.50;39.39;102965.38;5063643;28;20059;-56
2022/03/19 01:28:14;;;;;;;6.82;2.92;;;;;;;9.18;39.77;102962.38;5072218;28;20543;-56
2022/03/19 01:31:01;;;;;;;4.93;2.42;;;;;;;9.32;39.75;102963.72;5076192;28;20055;-58
2022/03/19 01:33:46;;;;;;;8.32;2.85;;;;;;;9.34;39.66;102957.97;5077828;28;20055;-55
2022/03/19 01:36:32;;;;;;;9.27;2.78;;;;;;;9.43;39.44;102956.47;5065569;28;20067;-58
2022/03/19 01:39:19;;;;;;;7.30;2.80;;;;;;;9.40;39.66;102957.78;5090878;28;20065;-56
2022/03/19 01:42:06;;;;;;;6.82;2.47;;;;;;;9.18;40.01;102959.63;5066876;28;20084;-56
2022/03/19 01:44:53;;;;;;;6.82;3.03;;;;;;;9.10;40.16;102955.38;5080583;28;20063;-54
2022/03/19 01:47:39;;;;;;;8.18;2.78;;;;;;;9.32;39.70;102947.22;5077905;28;20076;-57
2022/03/19 01:50:26;;;;;;;9.45;2.72;;;;;;;9.39;39.56;102947.88;5075671;28;20063;-54
2022/03/19 01:53:12;;;;;;;5.90;2.63;;;;;;;9.35;39.68;102948.63;5068573;28;20060;-56
2022/03/19 01:55:58;;;;;;;8.00;3.40;;;;;;;9.49;39.46;102945.28;5074582;28;20522;-57
2022/03/19 01:58:44;;;;;;;8.90;3.03;;;;;;;9.42;39.68;102939.13;5077059;28;20203;-57
2022/03/19 02:01:30;;;;;;;8.57;3.00;;;;;;;9.40;39.48;102943.19;5076597;28;20063;-54
2022/03/19 02:04:18;;;;;;;7.20;2.97;;;;;;;9.31;39.69;102944.72;5065798;28;20687;-59
2022/03/19 02:07:07;;;;;;;7.40;2.97;;;;;;;9.36;39.85;102936.53;5073112;28;20067;-58
2022/03/19 02:09:57;;;;;;;10.77;3.40;;;;;;;9.17;40.24;102937.88;5077543;28;20068;-55
2022/03/19 02:12:44;;;;;;;8.95;3.50;;;;;;;9.10;40.32;102949.88;5076736;28;20646;-55
2022/03/19 02:15:30;;;;;;;8.70;3.25;;;;;;;9.12;40.34;102937.81;5070503;28;20068;-57
2022/03/19 02:18:16;;;;;;;6.95;3.03;;;;;;;9.06;40.38;102934.97;5069070;28;20820;-55
2022/03/19 02:21:02;;;;;;;8.48;3.58;;;;;;;8.93;40.58;102924.28;5073944;28;20072;-57
2022/03/19 02:27:03;;;;;;;9.50;3.75;;;;;;;9.13;40.74;102922.97;5077057;28;20477;-57
2022/03/19 02:29:50;;;;;;;10.25;4.35;;;;;;;9.17;40.75;102927.69;5090287;28;20040;-56
2022/03/19 02:32:39;;;;;;;11.50;4.05;;;;;;;9.27;40.43;102929.78;5076752;28;20067;-56
2022/03/19 02:35:25;;;;;;;10.52;4.15;;;;;;;9.32;40.33;102914.22;5075953;28;20055;-58
2022/03/19 02:38:11;;;;;;;9.43;4.43;;;;;;;9.18;40.76;102912.06;5081231;28;20056;-59
2022/03/19 02:40:57;;;;;;;7.88;3.97;;;;;;;8.97;41.13;102902.66;5067594;28;20051;-60
2022/03/19 02:43:42;;;;;;;9.27;5.00;;;;;;;8.97;41.41;102900.75;5075698;28;20683;-58
2022/03/19 02:46:50;;;;;;;8.15;3.97;;;;;;;9.13;41.14;102899.06;5076803;28;20067;-60
2022/03/19 02:49:36;;;;;;;9.48;3.83;;;;;;;9.00;41.69;102902.97;5077572;28;20059;-60
2022/03/19 02:52:22;;;;;;;11.85;4.15;;;;;;;8.87;41.87;102897.78;5061980;28;20068;-60
2022/03/19 02:55:08;;;;;;;8.63;4.18;;;;;;;8.92;41.65;102895.16;5066785;28;20059;-59
2022/03/19 02:57:54;;;;;;;10.43;5.20;;;;;;;8.96;41.87;102901.81;5075399;28;20063;-61
2022/03/19 03:00:41;;;;;;;9.98;4.95;;;;;;;8.75;42.07;102890.72;5061750;28;20400;-57
2022/03/19 03:03:28;;;;;;;12.77;5.10;;;;;;;8.72;42.29;102891.22;5068081;28;20526;-61
2022/03/19 03:06:14;;;;;;;14.18;5.32;;;;;;;8.54;42.69;102883.22;5076614;28;20079;-58
2022/03/19 03:09:01;;;;;;;12.43;4.70;;;;;;;8.69;42.59;102880.72;5072090;28;20052;-60
2022/03/19 03:11:47;;;;;;;11.88;5.10;;;;;;;8.72;42.32;102886.56;5073528;28;20059;-59
2022/03/19 03:14:33;;;;;;;11.43;5.32;;;;;;;8.72;42.35;102888.47;5068577;28;20543;-59
2022/03/19 03:17:19;;;;;;;11.05;4.82;;;;;;;8.82;42.56;102881.22;5076097;28;20570;-59
2022/03/19 03:20:06;;;;;;;12.68;5.70;;;;;;;8.72;42.58;102886.56;5068737;28;20064;-58
2022/03/19 03:22:53;;;;;;;9.50;5.03;;;;;;;8.87;42.63;102877.75;5073980;28;20064;-60
2022/03/19 03:25:38;;;;;;;14.25;5.53;;;;;;;8.62;43.08;102889.13;5073427;28;20085;-59
2022/03/19 03:28:24;;;;;;;13.90;5.68;;;;;;;8.72;43.07;102891.22;5068736;28;20055;-58
2022/03/19 03:31:10;;;;;;;10.82;5.78;;;;;;;8.61;43.25;102881.13;5075917;28;20063;-59
2022/03/19 03:33:56;;;;;;;10.82;5.57;;;;;;;8.53;43.24;102874.13;5080522;28;20059;-55
2022/03/19 03:36:42;;;;;;;11.13;5.65;;;;;;;8.68;43.37;102876.31;5076201;28;20415;-56
2022/03/19 03:39:28;;;;;;;13.88;5.85;;;;;;;8.55;43.52;102874.72;5073208;28;20059;-55
2022/03/19 03:42:15;;;;;;;14.52;6.15;;;;;;;8.55;43.62;102862.88;5070753;28;20079;-54
2022/03/19 03:45:02;;;;;;;16.25;7.15;;;;;;;8.38;44.16;102871.13;5077676;28;20067;-56
2022/03/19 03:47:49;;;;;;;17.27;6.47;;;;;;;8.44;44.13;102861.06;5069579;28;20059;-53
2022/03/19 03:50:36;;;;;;;12.40;6.20;;;;;;;8.35;44.42;102860.59;5078710;28;20063;-55
2022/03/19 03:53:24;;;;;;;11.75;6.78;;;;;;;8.59;44.03;102880.56;5075703;28;20059;-55
2022/03/19 03:56:11;;;;;;;13.57;7.55;;;;;;;8.42;44.08;102872.25;5066811;28;20526;-55
2022/03/19 03:58:57;;;;;;;12.15;7.05;;;;;;;8.53;44.08;102868.63;5075175;28;20056;-54
2022/03/19 04:01:43;;;;;;;13.02;7.30;;;;;;;8.40;44.40;102865.38;5075005;28;20067;-55
2022/03/19 04:04:29;;;;;;;15.73;7.78;;;;;;;8.48;44.29;102871.28;5075121;28;20068;-57
2022/03/19 04:07:15;;;;;;;13.00;6.90;;;;;;;8.30;44.54;102868.75;5085959;28;20067;-55
2022/03/19 04:10:01;;;;;;;14.43;7.35;;;;;;;8.21;45.17;102869.38;5074193;28;20416;-54
2022/03/19 04:12:48;;;;;;;13.93;7.75;;;;;;;8.30;44.98;102868.75;5075093;28;20083;-54
2022/03/19 04:15:34;;;;;;;16.05;7.80;;;;;;;8.24;45.31;102866.16;5061826;28;20553;-53
2022/03/19 04:18:20;;;;;;;16.92;8.27;;;;;;;8.26;45.63;102864.84;5087675;28;20059;-61
2022/03/19 04:21:06;;;;;;;16.33;8.35;;;;;;;8.20;45.56;102863.03;5063767;28;20060;-54
2022/03/19 04:23:51;;;;;;;15.93;8.10;;;;;;;8.12;46.09;102863.44;5063938;28;20067;-55
2022/03/19 04:26:37;;;;;;;15.48;8.55;;;;;;;8.03;46.38;102859.41;5075052;28;20063;-55
2022/03/19 04:29:23;;;;;;;22.90;9.30;;;;;;;8.18;46.05;102856.13;5075006;28;20055;-52
2022/03/19 04:32:09;;;;;;;15.15;8.45;;;;;;;8.23;46.04;102865.28;5074644;28;20076;-56
2022/03/19 04:34:55;;;;;;;15.45;8.93;;;;;;;8.11;46.39;102875.47;5073675;28;20075;-57
2022/03/19 04:37:41;;;;;;;17.27;8.77;;;;;;;8.12;46.25;102877.16;5084508;28;20062;-56
2022/03/19 04:40:28;;;;;;;19.63;9.73;;;;;;;8.10;46.65;102862.84;5084494;28;20063;-55
2022/03/19 04:43:14;;;;;;;16.58;8.98;;;;;;;7.88;46.88;102853.59;5062638;28;20059;-54
2022/03/19 04:46:00;;;;;;;16.58;8.75;;;;;;;8.04;46.98;102860.25;5079725;28;20064;-55
2022/03/19 04:48:46;;;;;;;17.38;9.32;;;;;;;8.09;47.10;102863.09;5068675;28;20064;-58
2022/03/19 04:51:34;;;;;;;18.45;9.70;;;;;;;7.96;47.47;102855.97;5074408;28;20059;-57
2022/03/19 04:54:20;;;;;;;18.52;10.13;;;;;;;7.94;47.97;102860.88;5066596;28;20055;-54
2022/03/19 04:57:06;;;;;;;18.55;10.40;;;;;;;8.02;47.94;102865.97;5071078;28;20059;-57
2022/03/19 04:59:52;;;;;;;18.25;10.35;;;;;;;8.19;47.51;102868.78;5075258;28;20052;-55
2022/03/19 05:02:39;;;;;;;18.98;10.48;;;;;;;8.04;47.79;102850.09;5068849;28;20140;-59
2022/03/19 05:05:25;;;;;;;23.95;10.90;;;;;;;8.04;48.11;102850.09;5073432;28;20545;-57
2022/03/19 05:08:11;;;;;;;19.60;10.82;;;;;;;7.99;48.19;102858.22;5072479;28;20060;-55
2022/03/19 05:11:17;;;;;;;20.75;11.38;;;;;;;8.16;48.09;102847.31;5078851;28;20048;-54
2022/03/19 05:14:04;;;;;;;22.48;11.50;;;;;;;7.93;48.73;102856.47;5068830;28;20063;-56
2022/03/19 05:16:51;;;;;;;24.50;12.35;;;;;;;7.76;49.15;102858.28;5090529;28;20052;-56
2022/03/19 05:19:37;;;;;;;21.77;12.93;;;;;;;7.77;49.53;102860.81;5077708;28;20518;-55
2022/03/19 05:22:23;;;;;;;24.27;12.75;;;;;;;8.03;49.20;102853.94;5077926;28;20059;-54
2022/03/19 05:25:09;;;;;;;23.23;13.05;;;;;;;8.04;49.14;102865.75;5062939;28;20685;-52
2022/03/19 05:27:55;;;;;;;25.70;13.70;;;;;;;8.10;49.30;102862.84;5075679;28;20060;-55
2022/03/19 05:30:41;;;;;;;22.42;13.23;;;;;;;8.06;49.17;102860.81;5071324;28;20486;-56
2022/03/19 05:36:36;;;;;;;29.83;14.60;;;;;;;7.88;50.30;102861.84;5059644;28;20063;-53
2022/03/19 05:39:22;;;;;;;24.25;14.30;;;;;;;7.76;51.23;102861.88;5053131;28;20055;-54
2022/03/19 05:42:09;;;;;;;25.73;14.60;;;;;;;7.78;51.46;102859.72;5075668;28;20067;-58
2022/03/19 05:44:55;;;;;;;27.02;14.98;;;;;;;7.58;52.21;102862.03;5075817;28;20064;-58
2022/03/19 05:47:44;;;;;;;25.70;15.00;;;;;;;7.79;51.43;102863.31;5078031;28;20064;-58
2022/03/19 05:50:31;;;;;;;26.10;15.90;;;;;;;7.82;51.53;102854.59;5076783;28;20059;-57
2022/03/19 05:53:17;;;;;;;25.73;15.93;;;;;;;7.71;51.79;102847.22;5069544;28;20067;-58
2022/03/19 05:56:03;;;;;;;28.55;16.63;;;;;;;7.72;52.21;102855.19;5066436;28;20059;-54
2022/03/19 05:58:50;;;;;;;28.30;16.55;;;;;;;7.69;52.29;102852.94;5068977;28;20063;-56
2022/03/19 06:01:36;;;;;;;28.45;17.20;;;;;;;7.72;52.80;102848.91;5083514;28;20071;-57
2022/03/19 06:04:23;;;;;;;29.02;16.88;;;;;;;7.70;52.82;102859.28;5071973;28;20063;-56
2022/03/19 06:07:09;;;;;;;34.60;18.25;;;;;;;7.63;53.46;102862.16;5075182;28;20469;-56
2022/03/19 06:09:55;;;;;;;27.42;16.85;;;;;;;7.57;53.56;102867.75;5071968;28;20059;-60
2022/03/19 06:12:43;;;;;;;30.80;17.05;;;;;;;7.74;53.12;102861.28;5077549;28;20056;-55
2022/03/19 06:15:29;;;;;;;32.85;18.63;;;;;;;7.70;52.99;102864.78;5077128;28;20106;-58
2022/03/19 06:18:15;;;;;;;32.65;17.27;;;;;;;7.81;53.28;102866.66;5068820;28;20059;-58
2022/03/19 06:21:02;;;;;;;33.72;19.30;;;;;;;7.51;53.70;102866.84;5080999;28;20059;-57
2022/03/19 06:23:49;;;;;;;31.65;18.40;;;;;;;7.72;53.85;102866.19;5065476;28;20071;-55
2022/03/19 06:26:36;;;;;;;33.28;19.30;;;;;;;7.84;53.59;102866.16;5077182;28;20526;-60
2022/03/19 06:29:22;;;;;;;30.90;19.55;;;;;;;7.48;54.71;102872.78;5079700;28;20055;-55
2022/03/19 06:32:08;;;;;;;33.58;18.60;;;;;;;7.67;54.15;102870.75;5063810;28;20110;-55
2022/03/19 06:34:54;;;;;;;31.13;19.25;;;;;;;7.70;54.07;102873.00;5076983;28;20059;-55
2022/03/19 06:37:40;;;;;;;36.83;19.67;;;;;;;7.73;54.17;102870.59;5077016;28;20518;-56
2022/03/19 06:40:26;;;;;;;34.33;20.05;;;;;;;7.78;54.28;102864.38;5072346;28;20403;-54
2022/03/19 06:43:12;;;;;;;35.72;20.52;;;;;;;7.56;55.17;102869.69;5068899;28;20060;-56
2022/03/19 06:45:58;;;;;;;39.63;21.77;;;;;;;7.66;54.77;102874.53;5072827;28;20060;-59
2022/03/19 06:48:46;;;;;;;34.92;20.33;;;;;;;7.65;55.04;102870.16;5076186;28;20399;-55
2022/03/19 06:51:32;;;;;;;36.67;23.00;;;;;;;7.56;55.73;102868.84;5075396;28;20063;-57
2022/03/19 06:54:18;;;;;;;36.65;22.38;;;;;;;7.60;55.84;102870.84;5076634;28;20067;-59
2022/03/19 06:57:04;;;;;;;40.75;23.52;;;;;;;7.73;55.42;102876.09;5062253;28;20067;-57
2022/03/19 06:59:50;;;;;;;37.47;23.13;;;;;;;7.90;55.34;102876.16;5078899;28;20051;-58
2022/03/19 07:02:50;;;;;;;37.47;23.17;;;;;;;8.12;54.37;102863.44;5076479;28;20068;-57
2022/03/19 07:05:36;;;;;;;;;;;;;;;7.81;55.82;102861.16;5070665;28;20684;-57
2022/03/19 07:08:22;;;;;;;44.47;25.42;;;;;;;7.87;55.66;102873.91;5066677;28;19920;-61
2022/03/19 07:11:08;;;;;;;43.55;25.50;;;;;;;7.81;55.84;102874.88;5073390;28;20064;-55
2022/03/19 07:13:54;;;;;;;44.63;26.77;;;;;;;7.87;56.37;102857.44;5076296;28;20063;-56
2022/03/19 07:16:42;;;;;;;43.30;28.10;;;;;;;7.97;56.15;102865.88;5077924;28;20435;-57
2022/03/19 07:19:28;;;;;;;44.08;27.25;;;;;;;7.90;56.00;102877.00;5057162;28;20063;-54
2022/03/19 07:22:13;;;;;;;45.33;28.65;;;;;;;7.95;56.08;102860.63;5062256;28;20075;-56
2022/03/19 07:25:00;;;;;;;48.75;29.00;;;;;;;7.71;57.02;102870.00;5063097;28;20079;-55
2022/03/19 07:27:46;;;;;;;52.47;28.30;;;;;;;7.75;56.93;102867.63;5075229;28;20094;-59
2022/03/19 07:30:33;;;;;;;48.72;29.98;;;;;;;7.77;57.14;102865.47;5075400;28;20047;-57
2022/03/19 07:33:19;;;;;;;45.25;28.35;;;;;;;7.97;56.61;102863.13;5067985;28;20051;-56
2022/03/19 07:36:05;;;;;;;48.05;29.02;;;;;;;8.08;56.69;102862.25;5071180;28;20055;-57
2022/03/19 07:38:51;;;;;;;46.55;28.77;;;;;;;8.11;56.56;102861.75;5069311;28;20051;-56
2022/03/19 07:41:46;;;;;;;48.45;30.00;;;;;;;7.90;57.28;102863.28;5057829;28;20064;-59
2022/03/19 07:44:32;;;;;;;46.65;28.85;;;;;;;7.98;57.38;102864.81;5073544;28;20538;-58
2022/03/19 07:47:18;;;;;;;52.30;30.80;;;;;;;8.00;57.07;102859.91;5075238;28;20083;-57
2022/03/19 07:50:05;;;;;;;47.72;30.58;;;;;;;7.94;57.66;102853.47;5070009;28;20056;-59
2022/03/19 07:52:51;;;;;;;51.45;31.20;;;;;;;8.23;57.07;102862.53;5070164;28;20055;-59
2022/03/19 07:55:37;;;;;;;49.67;30.77;;;;;;;8.21;56.97;102861.13;5084759;28;20064;-60
2022/03/19 07:58:23;;;;;;;49.75;32.28;;;;;;;8.14;57.28;102855.81;5069839;28;20064;-56
2022/03/19 08:01:09;;;;;;;55.60;32.90;;;;;;;8.19;57.19;102857.78;5072475;28;20056;-55
2022/03/19 08:03:55;;;;;;;52.22;32.70;;;;;;;8.28;57.09;102853.63;5062798;28;20052;-55
2022/03/19 08:06:41;;;;;;;55.60;34.45;;;;;;;8.22;57.91;102849.91;5071941;28;20059;-55
2022/03/19 08:09:27;;;;;;;51.45;33.53;;;;;;;8.42;57.48;102853.03;5070442;28;20863;-58
2022/03/19 08:12:13;;;;;;;60.30;35.00;;;;;;;8.56;56.86;102845.34;5082059;28;20047;-58
2022/03/19 08:14:59;;;;;;;53.80;34.40;;;;;;;8.46;57.05;102854.22;5076809;28;20075;-57
2022/03/19 08:17:45;;;;;;;57.65;37.60;;;;;;;8.54;56.88;102864.78;5076555;28;20079;-57
2022/03/19 08:20:31;;;;;;;66.00;40.33;;;;;;;8.57;57.15;102858.81;5070098;28;20072;-57
2022/03/19 08:23:20;;;;;;;57.47;35.15;;;;;;;8.59;57.24;102848.44;5076274;28;20071;-60
2022/03/19 08:26:06;;;;;;;59.88;36.33;;;;;;;8.86;56.45;102859.56;5072987;28;20055;-60
2022/03/19 08:28:52;;;;;;;57.25;36.53;;;;;;;8.92;56.21;102842.09;5071951;28;20075;-58
2022/03/19 08:31:39;;;;;;;61.88;34.78;;;;;;;8.76;56.81;102840.19;5065911;28;20064;-57
2022/03/19 08:34:26;;;;;;;58.08;36.78;;;;;;;8.68;57.18;102835.91;5071696;28;20055;-55
2022/03/19 08:37:12;;;;;;;60.08;37.28;;;;;;;8.75;57.10;102839.34;5072301;28;20059;-59
2022/03/19 08:40:16;;;;;;;61.65;37.25;;;;;;;8.82;56.81;102834.50;5071355;28;20550;-61
2022/03/19 08:43:02;;;;;;;64.35;37.58;;;;;;;9.09;56.06;102838.25;5071109;28;20055;-58
2022/03/19 08:45:48;;;;;;;55.78;35.42;;;;;;;9.13;56.12;102835.00;5070105;28;20067;-57
2022/03/19 08:48:34;;;;;;;58.20;36.50;;;;;;;9.02;56.41;102834.00;5070497;28;20071;-57
2022/03/19 08:54:24;;;;;;;61.03;37.40;;;;;;;9.07;56.37;102837.66;5065509;28;20060;-58
2022/03/19 08:57:10;;;;;;;57.20;36.88;;;;;;;9.23;55.90;102843.38;5069714;28;20059;-59
2022/03/19 09:00:03;;;;;;;55.97;36.05;;;;;;;9.37;55.49;102839.19;5071397;28;20076;-59
2022/03/19 09:03:03;;;;;;;59.28;37.28;;;;;;;9.48;55.41;102830.84;5057211;28;20079;-63
2022/03/19 09:05:49;;;;;;;60.17;38.10;;;;;;;9.65;54.98;102837.13;5060718;28;20067;-62
2022/03/19 09:08:35;;;;;;;63.83;39.03;;;;;;;9.74;54.60;102832.84;5051951;28;20060;-62
2022/03/19 09:11:23;;;;;;;59.58;36.92;;;;;;;9.75;53.89;102839.97;5069143;28;20396;-62
2022/03/19 09:14:10;;;;;;;60.20;37.28;;;;;;;9.78;53.73;102850.47;5070803;28;20067;-61
2022/03/19 09:16:55;;;;;;;60.17;37.72;;;;;;;9.92;53.43;102828.91;5073999;28;20059;-61
2022/03/19 09:19:41;;;;;;;57.25;38.13;;;;;;;10.07;53.11;102826.31;5081970;28;20048;-62
2022/03/19 09:22:29;;;;;;;60.17;37.92;;;;;;;10.20;52.37;102821.25;5072040;28;20052;-62
2022/03/19 09:25:15;;;;;;;59.22;37.15;;;;;;;10.42;51.58;102823.13;5070023;28;20053;-63
2022/03/19 09:28:01;;;;;;;56.70;37.10;;;;;;;10.47;51.29;102821.25;5074823;28;20052;-61
2022/03/19 09:30:47;;;;;;;56.70;37.00;;;;;;;10.45;50.73;102817.94;5077370;28;20040;-62
2022/03/19 09:33:33;;;;;;;52.45;35.75;;;;;;;10.48;50.50;102822.09;5074555;28;20057;-59
2022/03/19 09:36:19;;;;;;;53.08;35.65;;;;;;;10.64;49.89;102824.72;5074702;28;20062;-61
2022/03/19 09:39:05;;;;;;;52.78;35.10;;;;;;;10.67;49.48;102815.91;5072623;28;20056;-62
2022/03/19 09:41:51;;;;;;;58.10;36.05;;;;;;;10.59;49.58;102812.81;5069036;28;20052;-57
2022/03/19 09:44:39;;;;;;;49.10;33.53;;;;;;;10.48;49.61;102809.13;5074281;28;20049;-58
2022/03/19 09:47:26;;;;;;;52.58;34.55;;;;;;;10.55;49.41;102808.94;5074280;28;20052;-60
2022/03/19 09:50:14;;;;;;;51.45;34.60;;;;;;;10.59;49.14;102805.38;5065287;28;20443;-58
2022/03/19 09:53:03;;;;;;;55.58;35.30;;;;;;;10.72;48.74;102804.09;5074099;28;20483;-61
2022/03/19 09:55:52;;;;;;;58.53;35.72;;;;;;;10.75;48.51;102800.81;5068828;28;20056;-58
2022/03/19 09:58:39;;;;;;;52.58;34.78;;;;;;;10.92;48.52;102790.47;5076660;28;20056;-58
2022/03/19 10:01:31;;;;;;;50.35;34.67;;;;;;;10.93;48.34;102790.19;5070257;28;20431;-59
2022/03/19 10:04:20;;;;;;;50.17;33.45;;;;;;;11.15;47.86;102790.06;5083428;28;20060;-57
2022/03/19 10:10:11;;;;;;;48.80;32.83;;;;;;;11.14;46.84;102783.72;5077733;28;20060;-60
2022/03/19 10:12:58;;;;;;;51.78;33.38;;;;;;;11.09;47.39;102780.94;5070311;28;20072;-57
2022/03/19 10:15:44;;;;;;;52.45;33.53;;;;;;;11.23;47.27;102773.00;5077398;28;20411;-60
2022/03/19 10:18:31;;;;;;;52.42;34.58;;;;;;;11.33;46.37;102776.63;5077432;28;20637;-60
2022/03/19 10:21:18;;;;;;;53.80;34.85;;;;;;;11.29;46.35;102777.47;5073359;28;20065;-58
2022/03/19 10:24:07;;;;;;;49.40;33.75;;;;;;;11.38;46.15;102768.38;5076086;28;20052;-60
2022/03/19 10:26:54;;;;;;;51.28;33.60;;;;;;;11.52;46.32;102768.75;5072105;28;20048;-58
2022/03/19 10:29:41;;;;;;;48.92;33.55;;;;;;;11.67;45.32;102757.78;5071144;28;20056;-59
2022/03/19 10:32:28;;;;;;;45.60;32.58;;;;;;;11.58;45.38;102755.78;5074006;28;20056;-61
2022/03/19 10:35:28;;;;;;;50.38;33.15;;;;;;;11.63;45.24;102756.63;5075284;28;20578;-58
2022/03/19 10:38:20;;;;;;;56.00;33.28;;;;;;;11.75;44.95;102756.44;5065653;28;20056;-61
2022/03/19 10:41:06;;;;;;;56.08;33.08;;;;;;;11.66;44.68;102753.38;5070079;28;20048;-60
2022/03/19 10:43:52;;;;;;;47.63;31.83;;;;;;;11.62;44.58;102749.44;5055754;28;20056;-64
2022/03/19 10:46:38;;;;;;;48.30;32.50;;;;;;;11.59;44.58;102747.25;5077601;28;20056;-59
2022/03/19 10:49:26;;;;;;;47.55;32.30;;;;;;;11.71;44.40;102739.59;5083115;28;20052;-60
2022/03/19 10:52:15;;;;;;;50.08;32.78;;;;;;;11.87;43.93;102748.72;5064489;28;20044;-57
2022/03/19 10:55:03;;;;;;;47.20;31.52;;;;;;;11.87;44.08;102737.69;5082948;28;20064;-61
2022/03/19 10:57:49;;;;;;;48.58;31.52;;;;;;;11.97;43.45;102730.25;5055235;28;20057;-57
2022/03/19 11:00:40;;;;;;;45.53;31.23;;;;;;;11.92;42.90;102741.28;5076348;28;20056;-59
2022/03/19 11:03:29;;;;;;;46.45;29.77;;;;;;;12.08;42.47;102729.13;5064703;28;20044;-61
2022/03/19 11:06:16;;;;;;;48.65;30.88;;;;;;;12.17;42.66;102729.41;5069555;28;20053;-59
2022/03/19 11:09:09;;;;;;;47.83;31.05;;;;;;;12.16;42.22;102725.84;5058665;28;20049;-61
2022/03/19 11:11:58;;;;;;;46.55;31.83;;;;;;;12.30;42.14;102726.13;5062837;28;20048;-60
2022/03/19 11:14:45;;;;;;;45.53;31.40;;;;;;;12.46;41.71;102719.50;5067239;28;20052;-61
2022/03/19 11:17:32;;;;;;;43.55;30.00;;;;;;;12.48;41.38;102711.75;5071734;28;20626;-61
2022/03/19 11:20:18;;;;;;;45.10;30.10;;;;;;;12.55;41.17;102722.53;5075851;28;20056;-61
2022/03/19 11:23:05;;;;;;;43.45;30.02;;;;;;;12.73;40.70;102711.72;5064021;28;20164;-61
2022/03/19 11:25:54;;;;;;;48.40;31.58;;;;;;;12.73;40.88;102708.94;5054220;28;20751;-61
2022/03/19 11:28:40;;;;;;;46.40;31.45;;;;;;;12.78;40.67;102706.16;5064221;28;20060;-60
2022/03/19 11:31:29;;;;;;;49.30;31.17;;;;;;;12.71;40.51;102711.16;5078258;28;20044;-61
2022/03/19 11:34:17;;;;;;;47.72;32.97;;;;;;;12.82;40.24;102709.19;5070795;28;20056;-61
2022/03/19 11:37:03;;;;;;;44.60;31.52;;;;;;;12.95;40.06;102695.63;5071906;28;20044;-61
2022/03/19 11:40:28;;;;;;;47.20;31.90;;;;;;;12.93;39.93;102697.00;5066791;28;20056;-65
2022/03/19 11:43:31;;;;;;;45.67;29.80;;;;;;;12.94;39.84;102691.19;5057560;28;20053;-61
2022/03/19 11:46:17;;;;;;;45.10;31.15;;;;;;;13.04;39.68;102682.06;5058958;28;20053;-62
2022/03/19 11:49:03;;;;;;;46.63;31.13;;;;;;;12.94;39.73;102676.53;5061683;28;20060;-60
2022/03/19 11:51:49;;;;;;;43.47;30.60;;;;;;;13.07;39.75;102674.03;5074684;28;20482;-63
2022/03/19 11:55:03;;;;;;;42.03;29.33;;;;;;;13.34;38.92;102670.84;5075442;28;20063;-66
2022/03/19 11:57:58;;;;;;;47.08;31.13;;;;;;;13.31;39.01;102668.66;5071091;28;20053;-61
2022/03/19 12:00:58;;;;;;;43.92;31.10;;;;;;;13.22;38.25;102665.66;5069907;28;20056;-60
2022/03/19 12:04:13;;;;;;;45.35;31.52;;;;;;;13.25;37.92;102665.09;5076922;28;20053;-61
2022/03/19 12:06:59;;;;;;;42.88;28.98;;;;;;;13.45;37.61;102669.69;5073414;28;20060;-60
2022/03/19 12:09:48;;;;;;;41.85;28.25;;;;;;;13.40;37.28;102651.19;5070079;28;20404;-59
2022/03/19 12:12:34;;;;;;;44.08;28.85;;;;;;;13.46;36.38;102647.25;5065321;28;20045;-57
2022/03/19 12:15:30;;;;;;;42.70;28.70;;;;;;;13.73;36.40;102640.44;5071530;28;20633;-59
2022/03/19 12:18:37;;;;;;;39.90;26.45;;;;;;;14.00;35.34;102632.50;5070394;28;20530;-61
2022/03/19 12:21:23;;;;;;;41.58;28.95;;;;;;;14.00;34.78;102632.50;5083187;28;20056;-61
2022/03/19 12:24:33;;;;;;;40.20;26.50;;;;;;;14.09;34.74;102627.97;5075259;28;20415;-61
2022/03/19 12:27:19;;;;;;;41.15;28.02;;;;;;;14.00;35.45;102624.19;5078902;28;20049;-61
2022/03/19 12:30:06;;;;;;;41.22;29.30;;;;;;;14.09;35.38;102617.72;5067014;28;20060;-61
2022/03/19 12:32:55;;;;;;;42.58;28.25;;;;;;;14.22;34.95;102608.72;5065019;28;20053;-63
2022/03/19 12:35:43;;;;;;;41.28;28.27;;;;;;;14.19;35.17;102606.53;5046351;28;20052;-59
2022/03/19 12:38:32;;;;;;;44.88;29.55;;;;;;;13.98;34.66;102607.03;5061557;28;20057;-60
2022/03/19 12:41:24;;;;;;;43.30;29.13;;;;;;;14.13;35.49;102587.47;5065490;28;20412;-61
2022/03/19 12:44:31;;;;;;;42.40;28.98;;;;;;;14.03;35.14;102576.50;5073808;28;20056;-59
2022/03/19 12:47:19;;;;;;;43.70;28.55;;;;;;;14.13;34.99;102577.22;5057347;28;20061;-60
2022/03/19 12:50:05;;;;;;;44.28;31.08;;;;;;;14.35;34.81;102569.25;5051882;28;20048;-59
2022/03/19 12:52:51;;;;;;;39.58;28.17;;;;;;;14.28;34.56;102567.94;5071767;28;20045;-61
2022/03/19 12:55:37;;;;;;;42.47;29.50;;;;;;;14.31;34.50;102559.06;5041574;28;20484;-60
2022/03/19 12:58:20;;;;;;;43.65;27.77;;;;;;;14.29;34.30;102552.97;5062055;28;20069;-60
2022/03/19 13:01:09;;;;;;;43.35;29.92;;;;;;;14.40;34.63;102543.44;5061952;28;20049;-60
2022/03/19 13:03:59;;;;;;;43.50;29.52;;;;;;;14.58;34.99;102531.56;5060747;28;20049;-62
2022/03/19 13:06:45;;;;;;;38.33;28.88;;;;;;;14.75;34.07;102529.09;5066611;28;20048;-61